sensor_id;sensor_type;location;lat;lon;timestamp;temperature;humidity
13229;DHT22;6680;53.220;10.402;2023-09-30T00:00:09;12.90;99.90
13229;DHT22;6680;53.220;10.402;2023-09-30T00:02:36;12.90;99.90
13229;DHT22;6680;53.220;10.402;2023-09-30T00:05:05;12.90;99.90
13229;DHT22;6680;53.220;10.402;2023-09-30T00:07:32;12.90;99.90
13229;DHT22;6680;53.220;10.402;2023-09-30T00:10:00;12.90;99.90
13229;DHT22;6680;53.220;10.402;2023-09-30T00:12:27;12.90;99.90
13229;DHT22;6680;53.220;10.402;2023-09-30T00:14:54;12.90;99.90
13229;DHT22;6680;53.220;10.402;2023-09-30T00:17:21;12.80;99.90
13229;DHT22;6680;53.220;10.402;2023-09-30T00:19:48;12.60;99.90
13229;DHT22;6680;53.220;10.402;2023-09-30T00:22:17;12.70;99.90
13229;DHT22;6680;53.220;10.402;2023-09-30T00:24:43;12.80;99.90
13229;DHT22;6680;53.220;10.402;2023-09-30T00:27:10;12.70;99.90
13229;DHT22;6680;53.220;10.402;2023-09-30T00:29:37;12.70;99.90
13229;DHT22;6680;53.220;10.402;2023-09-30T00:32:04;12.60;99.90
13229;DHT22;6680;53.220;10.402;2023-09-30T00:34:33;12.70;99.90
13229;DHT22;6680;53.220;10.402;2023-09-30T00:37:00;12.70;99.90
13229;DHT22;6680;53.220;10.402;2023-09-30T00:39:28;12.60;99.90
13229;DHT22;6680;53.220;10.402;2023-09-30T00:41:56;12.60;99.90
13229;DHT22;6680;53.220;10.402;2023-09-30T00:44:24;12.60;99.90
13229;DHT22;6680;53.220;10.402;2023-09-30T00:46:51;12.50;99.90
13229;DHT22;6680;53.220;10.402;2023-09-30T00:49:18;12.50;99.90
13229;DHT22;6680;53.220;10.402;2023-09-30T00:51:45;12.50;99.90
13229;DHT22;6680;53.220;10.402;2023-09-30T00:54:12;12.40;99.90
13229;DHT22;6680;53.220;10.402;2023-09-30T00:56:44;12.50;99.90
13229;DHT22;6680;53.220;10.402;2023-09-30T00:59:12;12.50;99.90
13229;DHT22;6680;53.220;10.402;2023-09-30T01:01:40;12.50;99.90
13229;DHT22;6680;53.220;10.402;2023-09-30T01:04:07;12.50;99.90
13229;DHT22;6680;53.220;10.402;2023-09-30T01:06:35;12.50;99.90
13229;DHT22;6680;53.220;10.402;2023-09-30T01:09:02;12.40;99.90
13229;DHT22;6680;53.220;10.402;2023-09-30T01:11:29;12.40;99.90
13229;DHT22;6680;53.220;10.402;2023-09-30T01:13:58;12.40;99.90
13229;DHT22;6680;53.220;10.402;2023-09-30T01:16:24;12.40;99.90
13229;DHT22;6680;53.220;10.402;2023-09-30T01:18:51;12.40;99.90
13229;DHT22;6680;53.220;10.402;2023-09-30T01:21:18;12.50;99.90
13229;DHT22;6680;53.220;10.402;2023-09-30T01:23:47;12.40;99.90
13229;DHT22;6680;53.220;10.402;2023-09-30T01:26:14;12.40;99.90
13229;DHT22;6680;53.220;10.402;2023-09-30T01:28:43;12.40;99.90
13229;DHT22;6680;53.220;10.402;2023-09-30T01:31:14;12.40;99.90
13229;DHT22;6680;53.220;10.402;2023-09-30T01:33:41;12.40;99.90
13229;DHT22;6680;53.220;10.402;2023-09-30T01:36:08;12.40;99.90
13229;DHT22;6680;53.220;10.402;2023-09-30T01:38:37;12.40;99.90
13229;DHT22;6680;53.220;10.402;2023-09-30T01:41:05;12.40;99.90
13229;DHT22;6680;53.220;10.402;2023-09-30T01:43:32;12.40;99.90
13229;DHT22;6680;53.220;10.402;2023-09-30T01:46:01;12.40;99.90
13229;DHT22;6680;53.220;10.402;2023-09-30T01:48:27;12.40;99.90
13229;DHT22;6680;53.220;10.402;2023-09-30T01:50:54;12.40;99.90
13229;DHT22;6680;53.220;10.402;2023-09-30T01:53:21;12.30;99.90
13229;DHT22;6680;53.220;10.402;2023-09-30T01:55:48;12.30;99.90
13229;DHT22;6680;53.220;10.402;2023-09-30T01:58:16;12.20;99.90
13229;DHT22;6680;53.220;10.402;2023-09-30T02:00:46;12.20;99.90
13229;DHT22;6680;53.220;10.402;2023-09-30T02:03:13;12.20;99.90
13229;DHT22;6680;53.220;10.402;2023-09-30T02:05:40;12.10;99.90
13229;DHT22;6680;53.220;10.402;2023-09-30T02:08:07;12.10;99.90
13229;DHT22;6680;53.220;10.402;2023-09-30T02:10:34;12.10;99.90
13229;DHT22;6680;53.220;10.402;2023-09-30T02:13:01;12.00;99.90
13229;DHT22;6680;53.220;10.402;2023-09-30T02:15:32;12.00;99.90
13229;DHT22;6680;53.220;10.402;2023-09-30T02:18:02;11.90;99.90
13229;DHT22;6680;53.220;10.402;2023-09-30T02:20:29;11.90;99.90
13229;DHT22;6680;53.220;10.402;2023-09-30T02:22:57;11.80;99.90
13229;DHT22;6680;53.220;10.402;2023-09-30T02:25:24;11.90;99.90
13229;DHT22;6680;53.220;10.402;2023-09-30T02:27:51;11.90;99.90
13229;DHT22;6680;53.220;10.402;2023-09-30T02:30:18;12.10;99.90
13229;DHT22;6680;53.220;10.402;2023-09-30T02:32:47;11.80;99.90
13229;DHT22;6680;53.220;10.402;2023-09-30T02:35:14;11.90;99.90
13229;DHT22;6680;53.220;10.402;2023-09-30T02:37:41;11.80;99.90
13229;DHT22;6680;53.220;10.402;2023-09-30T02:40:08;11.80;99.90
13229;DHT22;6680;53.220;10.402;2023-09-30T02:42:36;11.80;99.90
13229;DHT22;6680;53.220;10.402;2023-09-30T02:45:04;11.80;99.90
13229;DHT22;6680;53.220;10.402;2023-09-30T02:47:31;11.80;99.90
13229;DHT22;6680;53.220;10.402;2023-09-30T02:50:01;11.80;99.90
13229;DHT22;6680;53.220;10.402;2023-09-30T02:52:28;11.80;99.90
13229;DHT22;6680;53.220;10.402;2023-09-30T02:54:55;11.90;99.90
13229;DHT22;6680;53.220;10.402;2023-09-30T02:57:22;11.70;99.90
13229;DHT22;6680;53.220;10.402;2023-09-30T02:59:49;11.70;99.90
13229;DHT22;6680;53.220;10.402;2023-09-30T03:02:17;11.70;99.90
13229;DHT22;6680;53.220;10.402;2023-09-30T03:04:44;11.70;99.90
13229;DHT22;6680;53.220;10.402;2023-09-30T03:07:13;11.60;99.90
13229;DHT22;6680;53.220;10.402;2023-09-30T03:09:40;12.60;99.90
13229;DHT22;6680;53.220;10.402;2023-09-30T03:12:07;11.60;99.90
13229;DHT22;6680;53.220;10.402;2023-09-30T03:14:34;11.60;99.90
13229;DHT22;6680;53.220;10.402;2023-09-30T03:17:01;11.30;99.90
13229;DHT22;6680;53.220;10.402;2023-09-30T03:19:29;11.60;99.90
13229;DHT22;6680;53.220;10.402;2023-09-30T03:21:56;11.30;99.90
13229;DHT22;6680;53.220;10.402;2023-09-30T03:24:24;11.50;99.90
13229;DHT22;6680;53.220;10.402;2023-09-30T03:26:52;11.50;99.90
13229;DHT22;6680;53.220;10.402;2023-09-30T03:29:19;11.50;99.90
13229;DHT22;6680;53.220;10.402;2023-09-30T03:31:47;11.80;99.90
13229;DHT22;6680;53.220;10.402;2023-09-30T03:34:13;11.50;99.90
13229;DHT22;6680;53.220;10.402;2023-09-30T03:36:41;11.50;99.90
13229;DHT22;6680;53.220;10.402;2023-09-30T03:39:08;11.50;99.90
13229;DHT22;6680;53.220;10.402;2023-09-30T03:41:41;11.50;99.90
13229;DHT22;6680;53.220;10.402;2023-09-30T03:44:08;11.50;99.90
13229;DHT22;6680;53.220;10.402;2023-09-30T03:46:35;11.50;99.90
13229;DHT22;6680;53.220;10.402;2023-09-30T03:49:02;11.50;99.90
13229;DHT22;6680;53.220;10.402;2023-09-30T03:51:29;11.40;99.90
13229;DHT22;6680;53.220;10.402;2023-09-30T03:53:56;11.30;99.90
13229;DHT22;6680;53.220;10.402;2023-09-30T03:56:23;11.50;99.90
13229;DHT22;6680;53.220;10.402;2023-09-30T03:58:52;11.40;99.90
13229;DHT22;6680;53.220;10.402;2023-09-30T04:01:19;11.40;99.90
13229;DHT22;6680;53.220;10.402;2023-09-30T04:03:46;11.40;99.90
13229;DHT22;6680;53.220;10.402;2023-09-30T04:06:13;11.40;99.90
13229;DHT22;6680;53.220;10.402;2023-09-30T04:08:40;11.40;99.90
13229;DHT22;6680;53.220;10.402;2023-09-30T04:11:09;11.40;99.90
13229;DHT22;6680;53.220;10.402;2023-09-30T04:13:40;11.20;99.90
13229;DHT22;6680;53.220;10.402;2023-09-30T04:16:08;11.50;99.90
13229;DHT22;6680;53.220;10.402;2023-09-30T04:18:35;11.50;99.90
13229;DHT22;6680;53.220;10.402;2023-09-30T04:21:02;11.50;99.90
13229;DHT22;6680;53.220;10.402;2023-09-30T04:23:29;11.50;99.90
13229;DHT22;6680;53.220;10.402;2023-09-30T04:25:56;11.50;99.90
13229;DHT22;6680;53.220;10.402;2023-09-30T04:28:22;11.50;99.90
13229;DHT22;6680;53.220;10.402;2023-09-30T04:30:50;11.50;99.90
13229;DHT22;6680;53.220;10.402;2023-09-30T04:33:18;11.50;99.90
13229;DHT22;6680;53.220;10.402;2023-09-30T04:35:47;11.50;99.90
13229;DHT22;6680;53.220;10.402;2023-09-30T04:38:14;11.50;99.90
13229;DHT22;6680;53.220;10.402;2023-09-30T04:40:41;11.50;99.90
13229;DHT22;6680;53.220;10.402;2023-09-30T04:43:09;11.50;99.90
13229;DHT22;6680;53.220;10.402;2023-09-30T04:45:36;11.50;99.90
13229;DHT22;6680;53.220;10.402;2023-09-30T04:48:04;11.50;99.90
13229;DHT22;6680;53.220;10.402;2023-09-30T04:50:32;11.60;99.90
13229;DHT22;6680;53.220;10.402;2023-09-30T04:52:59;11.60;99.90
13229;DHT22;6680;53.220;10.402;2023-09-30T04:55:27;11.50;99.90
13229;DHT22;6680;53.220;10.402;2023-09-30T04:57:54;11.60;99.90
13229;DHT22;6680;53.220;10.402;2023-09-30T05:00:21;11.50;99.90
13229;DHT22;6680;53.220;10.402;2023-09-30T05:02:50;11.60;99.90
13229;DHT22;6680;53.220;10.402;2023-09-30T05:05:18;11.60;99.90
13229;DHT22;6680;53.220;10.402;2023-09-30T05:07:46;11.50;99.90
13229;DHT22;6680;53.220;10.402;2023-09-30T05:10:14;11.60;99.90
13229;DHT22;6680;53.220;10.402;2023-09-30T05:12:42;11.60;99.90
13229;DHT22;6680;53.220;10.402;2023-09-30T05:15:11;11.60;99.90
13229;DHT22;6680;53.220;10.402;2023-09-30T05:17:41;11.60;99.90
13229;DHT22;6680;53.220;10.402;2023-09-30T05:20:09;11.60;99.90
13229;DHT22;6680;53.220;10.402;2023-09-30T05:22:38;11.60;99.90
13229;DHT22;6680;53.220;10.402;2023-09-30T05:25:08;11.60;99.90
13229;DHT22;6680;53.220;10.402;2023-09-30T05:27:35;11.60;99.90
13229;DHT22;6680;53.220;10.402;2023-09-30T05:30:02;11.60;99.90
13229;DHT22;6680;53.220;10.402;2023-09-30T05:32:29;11.60;99.90
13229;DHT22;6680;53.220;10.402;2023-09-30T05:34:56;12.10;99.90
13229;DHT22;6680;53.220;10.402;2023-09-30T05:37:23;11.70;99.90
13229;DHT22;6680;53.220;10.402;2023-09-30T05:39:50;11.70;99.90
13229;DHT22;6680;53.220;10.402;2023-09-30T05:42:19;11.70;99.90
13229;DHT22;6680;53.220;10.402;2023-09-30T05:44:46;11.70;99.90
13229;DHT22;6680;53.220;10.402;2023-09-30T05:47:13;11.70;99.90
13229;DHT22;6680;53.220;10.402;2023-09-30T05:49:41;11.70;99.90
13229;DHT22;6680;53.220;10.402;2023-09-30T05:52:08;11.70;99.90
13229;DHT22;6680;53.220;10.402;2023-09-30T05:54:34;11.70;99.90
13229;DHT22;6680;53.220;10.402;2023-09-30T05:57:02;11.80;99.90
13229;DHT22;6680;53.220;10.402;2023-09-30T05:59:30;11.80;99.90
13229;DHT22;6680;53.220;10.402;2023-09-30T06:01:58;12.00;99.90
13229;DHT22;6680;53.220;10.402;2023-09-30T06:04:25;12.00;99.90
13229;DHT22;6680;53.220;10.402;2023-09-30T06:06:51;11.90;99.90
13229;DHT22;6680;53.220;10.402;2023-09-30T06:09:18;11.90;99.90
13229;DHT22;6680;53.220;10.402;2023-09-30T06:11:46;12.20;99.90
13229;DHT22;6680;53.220;10.402;2023-09-30T06:14:13;12.00;99.90
13229;DHT22;6680;53.220;10.402;2023-09-30T06:16:41;12.10;99.90
13229;DHT22;6680;53.220;10.402;2023-09-30T06:19:10;12.10;99.90
13229;DHT22;6680;53.220;10.402;2023-09-30T06:21:37;12.10;99.90
13229;DHT22;6680;53.220;10.402;2023-09-30T06:24:05;12.20;99.90
13229;DHT22;6680;53.220;10.402;2023-09-30T06:26:32;12.20;99.90
13229;DHT22;6680;53.220;10.402;2023-09-30T06:28:59;12.20;99.90
13229;DHT22;6680;53.220;10.402;2023-09-30T06:31:25;12.20;99.90
13229;DHT22;6680;53.220;10.402;2023-09-30T06:33:55;12.30;99.90
13229;DHT22;6680;53.220;10.402;2023-09-30T06:36:24;12.30;99.90
13229;DHT22;6680;53.220;10.402;2023-09-30T06:38:51;12.30;99.90
13229;DHT22;6680;53.220;10.402;2023-09-30T06:41:18;12.30;99.90
13229;DHT22;6680;53.220;10.402;2023-09-30T06:43:45;12.30;99.90
13229;DHT22;6680;53.220;10.402;2023-09-30T06:46:12;12.30;99.90
13229;DHT22;6680;53.220;10.402;2023-09-30T06:48:39;12.40;99.90
13229;DHT22;6680;53.220;10.402;2023-09-30T06:51:14;12.40;99.90
13229;DHT22;6680;53.220;10.402;2023-09-30T06:53:42;12.40;99.90
13229;DHT22;6680;53.220;10.402;2023-09-30T06:56:09;12.40;99.90
13229;DHT22;6680;53.220;10.402;2023-09-30T06:58:36;12.40;99.90
13229;DHT22;6680;53.220;10.402;2023-09-30T07:01:03;12.40;99.90
13229;DHT22;6680;53.220;10.402;2023-09-30T07:03:29;12.40;99.90
13229;DHT22;6680;53.220;10.402;2023-09-30T07:05:58;12.50;99.90
13229;DHT22;6680;53.220;10.402;2023-09-30T07:08:27;12.60;99.90
13229;DHT22;6680;53.220;10.402;2023-09-30T07:10:55;12.60;99.90
13229;DHT22;6680;53.220;10.402;2023-09-30T07:13:22;12.60;99.90
13229;DHT22;6680;53.220;10.402;2023-09-30T07:15:49;12.60;99.90
13229;DHT22;6680;53.220;10.402;2023-09-30T07:18:16;12.70;99.90
13229;DHT22;6680;53.220;10.402;2023-09-30T07:20:43;12.70;99.90
13229;DHT22;6680;53.220;10.402;2023-09-30T07:23:10;12.80;99.90
13229;DHT22;6680;53.220;10.402;2023-09-30T07:25:40;12.80;99.90
13229;DHT22;6680;53.220;10.402;2023-09-30T07:28:06;12.90;99.90
13229;DHT22;6680;53.220;10.402;2023-09-30T07:30:37;13.00;99.90
13229;DHT22;6680;53.220;10.402;2023-09-30T07:33:04;13.10;99.90
13229;DHT22;6680;53.220;10.402;2023-09-30T07:35:31;13.10;99.90
13229;DHT22;6680;53.220;10.402;2023-09-30T07:37:58;13.30;99.90
13229;DHT22;6680;53.220;10.402;2023-09-30T07:40:25;13.30;99.90
13229;DHT22;6680;53.220;10.402;2023-09-30T07:42:54;13.30;99.90
13229;DHT22;6680;53.220;10.402;2023-09-30T07:45:21;13.40;99.90
13229;DHT22;6680;53.220;10.402;2023-09-30T07:47:48;13.40;99.90
13229;DHT22;6680;53.220;10.402;2023-09-30T07:50:16;13.40;99.90
13229;DHT22;6680;53.220;10.402;2023-09-30T07:52:43;13.50;99.90
13229;DHT22;6680;53.220;10.402;2023-09-30T07:55:11;13.60;99.90
13229;DHT22;6680;53.220;10.402;2023-09-30T07:57:40;13.60;99.90
13229;DHT22;6680;53.220;10.402;2023-09-30T08:00:10;13.70;99.90
13229;DHT22;6680;53.220;10.402;2023-09-30T08:02:41;13.80;99.90
13229;DHT22;6680;53.220;10.402;2023-09-30T08:05:08;13.80;99.90
13229;DHT22;6680;53.220;10.402;2023-09-30T08:07:35;14.00;99.90
13229;DHT22;6680;53.220;10.402;2023-09-30T08:10:03;13.90;99.90
13229;DHT22;6680;53.220;10.402;2023-09-30T08:12:32;14.00;99.90
13229;DHT22;6680;53.220;10.402;2023-09-30T08:15:02;16.40;99.90
13229;DHT22;6680;53.220;10.402;2023-09-30T08:17:32;14.10;99.90
13229;DHT22;6680;53.220;10.402;2023-09-30T08:20:00;14.20;99.90
13229;DHT22;6680;53.220;10.402;2023-09-30T08:22:26;14.30;99.90
13229;DHT22;6680;53.220;10.402;2023-09-30T08:24:54;14.30;99.90
13229;DHT22;6680;53.220;10.402;2023-09-30T08:27:21;14.30;99.90
13229;DHT22;6680;53.220;10.402;2023-09-30T08:29:49;14.40;99.90
13229;DHT22;6680;53.220;10.402;2023-09-30T08:32:16;14.40;99.90
13229;DHT22;6680;53.220;10.402;2023-09-30T08:34:44;14.50;99.90
13229;DHT22;6680;53.220;10.402;2023-09-30T08:37:11;14.60;99.90
13229;DHT22;6680;53.220;10.402;2023-09-30T08:39:38;14.70;99.90
13229;DHT22;6680;53.220;10.402;2023-09-30T08:42:08;14.70;99.90
13229;DHT22;6680;53.220;10.402;2023-09-30T08:44:37;14.80;99.90
13229;DHT22;6680;53.220;10.402;2023-09-30T08:47:06;14.90;99.90
13229;DHT22;6680;53.220;10.402;2023-09-30T08:49:34;14.90;99.90
13229;DHT22;6680;53.220;10.402;2023-09-30T08:52:05;15.00;99.90
13229;DHT22;6680;53.220;10.402;2023-09-30T08:54:32;15.00;99.90
13229;DHT22;6680;53.220;10.402;2023-09-30T08:57:00;15.00;99.90
13229;DHT22;6680;53.220;10.402;2023-09-30T08:59:29;15.10;99.90
13229;DHT22;6680;53.220;10.402;2023-09-30T09:01:56;15.10;99.90
13229;DHT22;6680;53.220;10.402;2023-09-30T09:04:24;15.30;99.90
13229;DHT22;6680;53.220;10.402;2023-09-30T09:06:53;15.40;99.90
13229;DHT22;6680;53.220;10.402;2023-09-30T09:09:21;15.30;99.90
13229;DHT22;6680;53.220;10.402;2023-09-30T09:11:50;15.40;99.90
13229;DHT22;6680;53.220;10.402;2023-09-30T09:14:17;15.50;99.90
13229;DHT22;6680;53.220;10.402;2023-09-30T09:16:55;15.50;99.90
13229;DHT22;6680;53.220;10.402;2023-09-30T09:19:22;15.60;99.90
13229;DHT22;6680;53.220;10.402;2023-09-30T09:21:56;15.70;99.90
13229;DHT22;6680;53.220;10.402;2023-09-30T09:24:28;15.80;99.90
13229;DHT22;6680;53.220;10.402;2023-09-30T09:27:04;15.80;99.90
13229;DHT22;6680;53.220;10.402;2023-09-30T09:29:32;15.80;99.90
13229;DHT22;6680;53.220;10.402;2023-09-30T09:32:09;15.90;99.90
13229;DHT22;6680;53.220;10.402;2023-09-30T09:34:37;15.80;99.90
13229;DHT22;6680;53.220;10.402;2023-09-30T09:37:14;15.90;99.90
13229;DHT22;6680;53.220;10.402;2023-09-30T09:39:51;16.00;99.90
13229;DHT22;6680;53.220;10.402;2023-09-30T09:42:28;16.00;99.90
13229;DHT22;6680;53.220;10.402;2023-09-30T09:44:57;16.10;99.90
13229;DHT22;6680;53.220;10.402;2023-09-30T09:47:24;16.10;99.90
13229;DHT22;6680;53.220;10.402;2023-09-30T09:49:52;16.20;99.90
13229;DHT22;6680;53.220;10.402;2023-09-30T09:52:21;16.20;99.90
13229;DHT22;6680;53.220;10.402;2023-09-30T09:54:50;16.30;99.90
13229;DHT22;6680;53.220;10.402;2023-09-30T09:57:18;16.30;99.90
13229;DHT22;6680;53.220;10.402;2023-09-30T09:59:46;16.40;99.90
13229;DHT22;6680;53.220;10.402;2023-09-30T10:02:14;16.40;99.90
13229;DHT22;6680;53.220;10.402;2023-09-30T10:04:43;16.40;99.90
13229;DHT22;6680;53.220;10.402;2023-09-30T10:07:12;16.50;99.90
13229;DHT22;6680;53.220;10.402;2023-09-30T10:09:45;16.50;99.90
13229;DHT22;6680;53.220;10.402;2023-09-30T10:12:15;16.60;99.90
13229;DHT22;6680;53.220;10.402;2023-09-30T10:14:42;16.60;99.90
13229;DHT22;6680;53.220;10.402;2023-09-30T10:17:09;16.60;99.90
13229;DHT22;6680;53.220;10.402;2023-09-30T10:19:36;16.80;99.90
13229;DHT22;6680;53.220;10.402;2023-09-30T10:22:24;16.80;99.90
13229;DHT22;6680;53.220;10.402;2023-09-30T10:24:52;17.00;99.90
13229;DHT22;6680;53.220;10.402;2023-09-30T10:27:33;17.20;99.90
13229;DHT22;6680;53.220;10.402;2023-09-30T10:30:07;17.20;99.90
13229;DHT22;6680;53.220;10.402;2023-09-30T10:33:07;17.30;99.90
13229;DHT22;6680;53.220;10.402;2023-09-30T10:35:45;17.30;99.90
13229;DHT22;6680;53.220;10.402;2023-09-30T10:38:38;17.30;99.90
13229;DHT22;6680;53.220;10.402;2023-09-30T10:41:08;17.30;99.90
13229;DHT22;6680;53.220;10.402;2023-09-30T10:43:39;17.30;99.90
13229;DHT22;6680;53.220;10.402;2023-09-30T10:46:30;17.30;99.90
13229;DHT22;6680;53.220;10.402;2023-09-30T10:49:15;17.30;99.90
13229;DHT22;6680;53.220;10.402;2023-09-30T10:51:43;17.40;99.90
13229;DHT22;6680;53.220;10.402;2023-09-30T10:54:12;17.60;99.90
13229;DHT22;6680;53.220;10.402;2023-09-30T10:56:39;17.70;99.90
13229;DHT22;6680;53.220;10.402;2023-09-30T10:59:06;17.80;99.90
13229;DHT22;6680;53.220;10.402;2023-09-30T11:01:35;17.90;99.90
13229;DHT22;6680;53.220;10.402;2023-09-30T11:04:03;18.00;99.90
13229;DHT22;6680;53.220;10.402;2023-09-30T11:06:31;18.10;99.90
13229;DHT22;6680;53.220;10.402;2023-09-30T11:09:00;18.00;99.90
13229;DHT22;6680;53.220;10.402;2023-09-30T11:11:37;18.00;99.90
13229;DHT22;6680;53.220;10.402;2023-09-30T11:14:17;17.90;99.90
13229;DHT22;6680;53.220;10.402;2023-09-30T11:16:44;17.80;99.90
13229;DHT22;6680;53.220;10.402;2023-09-30T11:19:11;17.70;99.90
13229;DHT22;6680;53.220;10.402;2023-09-30T11:21:38;17.70;99.90
13229;DHT22;6680;53.220;10.402;2023-09-30T11:24:07;17.60;99.90
13229;DHT22;6680;53.220;10.402;2023-09-30T11:26:35;17.60;99.90
13229;DHT22;6680;53.220;10.402;2023-09-30T11:29:06;17.70;99.90
13229;DHT22;6680;53.220;10.402;2023-09-30T11:31:37;17.70;99.90
13229;DHT22;6680;53.220;10.402;2023-09-30T11:34:04;17.70;99.90
13229;DHT22;6680;53.220;10.402;2023-09-30T11:36:34;17.80;99.90
13229;DHT22;6680;53.220;10.402;2023-09-30T11:39:01;17.70;99.90
13229;DHT22;6680;53.220;10.402;2023-09-30T11:41:37;17.70;99.90
13229;DHT22;6680;53.220;10.402;2023-09-30T11:44:06;17.70;99.90
13229;DHT22;6680;53.220;10.402;2023-09-30T11:46:52;17.70;99.90
13229;DHT22;6680;53.220;10.402;2023-09-30T11:49:29;17.80;99.90
13229;DHT22;6680;53.220;10.402;2023-09-30T11:51:58;17.70;99.90
13229;DHT22;6680;53.220;10.402;2023-09-30T11:54:29;17.80;99.90
13229;DHT22;6680;53.220;10.402;2023-09-30T11:56:59;17.80;99.90
13229;DHT22;6680;53.220;10.402;2023-09-30T11:59:26;17.80;99.90
13229;DHT22;6680;53.220;10.402;2023-09-30T12:01:53;18.00;99.90
13229;DHT22;6680;53.220;10.402;2023-09-30T12:04:20;17.90;99.90
13229;DHT22;6680;53.220;10.402;2023-09-30T12:06:47;18.00;99.90
13229;DHT22;6680;53.220;10.402;2023-09-30T12:09:14;18.10;99.90
13229;DHT22;6680;53.220;10.402;2023-09-30T12:11:47;18.20;99.90
13229;DHT22;6680;53.220;10.402;2023-09-30T12:14:16;18.10;99.90
13229;DHT22;6680;53.220;10.402;2023-09-30T12:16:42;18.10;99.90
13229;DHT22;6680;53.220;10.402;2023-09-30T12:19:11;18.20;99.90
13229;DHT22;6680;53.220;10.402;2023-09-30T12:21:39;18.10;99.90
13229;DHT22;6680;53.220;10.402;2023-09-30T12:24:06;18.00;99.90
13229;DHT22;6680;53.220;10.402;2023-09-30T12:26:35;18.00;99.90
13229;DHT22;6680;53.220;10.402;2023-09-30T12:29:02;17.90;99.90
13229;DHT22;6680;53.220;10.402;2023-09-30T12:31:31;17.70;99.90
13229;DHT22;6680;53.220;10.402;2023-09-30T12:33:59;17.90;99.90
13229;DHT22;6680;53.220;10.402;2023-09-30T12:36:25;17.80;99.90
13229;DHT22;6680;53.220;10.402;2023-09-30T12:38:53;17.80;99.90
13229;DHT22;6680;53.220;10.402;2023-09-30T12:41:19;17.90;99.90
13229;DHT22;6680;53.220;10.402;2023-09-30T12:43:46;17.90;99.90
13229;DHT22;6680;53.220;10.402;2023-09-30T12:46:13;17.90;99.90
13229;DHT22;6680;53.220;10.402;2023-09-30T12:48:41;17.90;99.90
13229;DHT22;6680;53.220;10.402;2023-09-30T12:51:08;17.90;99.90
13229;DHT22;6680;53.220;10.402;2023-09-30T12:53:35;18.00;99.90
13229;DHT22;6680;53.220;10.402;2023-09-30T12:56:02;18.10;99.90
13229;DHT22;6680;53.220;10.402;2023-09-30T12:58:29;18.00;99.90
13229;DHT22;6680;53.220;10.402;2023-09-30T13:00:56;18.00;99.90
13229;DHT22;6680;53.220;10.402;2023-09-30T13:03:23;17.90;99.90
13229;DHT22;6680;53.220;10.402;2023-09-30T13:05:51;17.90;99.90
13229;DHT22;6680;53.220;10.402;2023-09-30T13:08:19;17.90;99.90
13229;DHT22;6680;53.220;10.402;2023-09-30T13:10:46;17.90;99.90
13229;DHT22;6680;53.220;10.402;2023-09-30T13:13:13;17.90;99.90
13229;DHT22;6680;53.220;10.402;2023-09-30T13:15:41;18.00;99.90
13229;DHT22;6680;53.220;10.402;2023-09-30T13:18:08;18.00;99.90
13229;DHT22;6680;53.220;10.402;2023-09-30T13:20:34;17.90;99.90
13229;DHT22;6680;53.220;10.402;2023-09-30T13:23:03;18.00;99.90
13229;DHT22;6680;53.220;10.402;2023-09-30T13:25:29;18.10;99.90
13229;DHT22;6680;53.220;10.402;2023-09-30T13:27:56;18.10;99.90
13229;DHT22;6680;53.220;10.402;2023-09-30T13:30:23;18.10;99.90
13229;DHT22;6680;53.220;10.402;2023-09-30T13:32:50;18.10;99.90
13229;DHT22;6680;53.220;10.402;2023-09-30T13:35:17;18.10;99.90
13229;DHT22;6680;53.220;10.402;2023-09-30T13:37:44;18.20;99.90
13229;DHT22;6680;53.220;10.402;2023-09-30T13:40:13;18.10;99.90
13229;DHT22;6680;53.220;10.402;2023-09-30T13:42:40;18.10;99.90
13229;DHT22;6680;53.220;10.402;2023-09-30T13:45:08;18.00;99.90
13229;DHT22;6680;53.220;10.402;2023-09-30T13:47:35;18.00;99.90
13229;DHT22;6680;53.220;10.402;2023-09-30T13:50:02;17.90;99.90
13229;DHT22;6680;53.220;10.402;2023-09-30T13:52:32;17.80;99.90
13229;DHT22;6680;53.220;10.402;2023-09-30T13:54:59;17.80;99.90
13229;DHT22;6680;53.220;10.402;2023-09-30T13:57:28;17.80;99.90
13229;DHT22;6680;53.220;10.402;2023-09-30T13:59:55;17.70;99.90
13229;DHT22;6680;53.220;10.402;2023-09-30T14:02:21;17.70;99.90
13229;DHT22;6680;53.220;10.402;2023-09-30T14:04:49;17.70;99.90
13229;DHT22;6680;53.220;10.402;2023-09-30T14:07:16;17.70;99.90
13229;DHT22;6680;53.220;10.402;2023-09-30T14:09:44;17.70;99.90
13229;DHT22;6680;53.220;10.402;2023-09-30T14:12:11;17.80;99.90
13229;DHT22;6680;53.220;10.402;2023-09-30T14:14:39;17.70;99.90
13229;DHT22;6680;53.220;10.402;2023-09-30T14:17:06;17.70;99.90
13229;DHT22;6680;53.220;10.402;2023-09-30T14:19:36;17.60;99.90
13229;DHT22;6680;53.220;10.402;2023-09-30T14:22:04;17.50;99.90
13229;DHT22;6680;53.220;10.402;2023-09-30T14:24:31;17.50;99.90
13229;DHT22;6680;53.220;10.402;2023-09-30T14:26:59;17.50;99.90
13229;DHT22;6680;53.220;10.402;2023-09-30T14:29:26;17.50;99.90
13229;DHT22;6680;53.220;10.402;2023-09-30T14:31:55;17.30;99.90
13229;DHT22;6680;53.220;10.402;2023-09-30T14:34:22;17.40;99.90
13229;DHT22;6680;53.220;10.402;2023-09-30T14:36:49;17.40;99.90
13229;DHT22;6680;53.220;10.402;2023-09-30T14:39:17;17.40;99.90
13229;DHT22;6680;53.220;10.402;2023-09-30T14:41:44;17.40;99.90
13229;DHT22;6680;53.220;10.402;2023-09-30T14:44:11;17.30;99.90
13229;DHT22;6680;53.220;10.402;2023-09-30T14:46:38;17.40;99.90
13229;DHT22;6680;53.220;10.402;2023-09-30T14:49:07;17.30;99.90
13229;DHT22;6680;53.220;10.402;2023-09-30T14:51:33;17.30;99.90
13229;DHT22;6680;53.220;10.402;2023-09-30T14:54:00;17.30;99.90
13229;DHT22;6680;53.220;10.402;2023-09-30T14:56:28;17.20;99.90
13229;DHT22;6680;53.220;10.402;2023-09-30T14:58:54;17.20;99.90
13229;DHT22;6680;53.220;10.402;2023-09-30T15:01:21;17.30;99.90
13229;DHT22;6680;53.220;10.402;2023-09-30T15:03:49;17.20;99.90
13229;DHT22;6680;53.220;10.402;2023-09-30T15:06:18;17.10;99.90
13229;DHT22;6680;53.220;10.402;2023-09-30T15:08:45;17.10;99.90
13229;DHT22;6680;53.220;10.402;2023-09-30T15:11:13;17.10;99.90
13229;DHT22;6680;53.220;10.402;2023-09-30T15:13:41;17.00;99.90
13229;DHT22;6680;53.220;10.402;2023-09-30T15:16:17;16.90;99.90
13229;DHT22;6680;53.220;10.402;2023-09-30T15:18:45;16.90;99.90
13229;DHT22;6680;53.220;10.402;2023-09-30T15:21:12;16.80;99.90
13229;DHT22;6680;53.220;10.402;2023-09-30T15:23:40;16.80;99.90
13229;DHT22;6680;53.220;10.402;2023-09-30T15:26:07;16.70;99.90
13229;DHT22;6680;53.220;10.402;2023-09-30T15:28:34;16.70;99.90
13229;DHT22;6680;53.220;10.402;2023-09-30T15:31:01;16.70;99.90
13229;DHT22;6680;53.220;10.402;2023-09-30T15:33:28;16.60;99.90
13229;DHT22;6680;53.220;10.402;2023-09-30T15:35:55;16.50;99.90